createdAt,value
2023-07-26T00:00:19.850Z,19.70
2023-07-26T00:02:47.100Z,19.60
2023-07-26T00:05:13.923Z,19.60
2023-07-26T00:07:40.680Z,19.60
2023-07-26T00:10:10.772Z,19.50
2023-07-26T00:12:39.866Z,19.50
2023-07-26T00:15:07.055Z,19.50
2023-07-26T00:17:33.767Z,19.50
2023-07-26T00:20:00.454Z,19.50
2023-07-26T00:22:27.166Z,19.50
2023-07-26T00:24:56.915Z,19.40
2023-07-26T00:27:28.192Z,19.40
2023-07-26T00:29:55.041Z,19.40
2023-07-26T00:32:24.544Z,19.40
2023-07-26T00:34:53.657Z,19.30
2023-07-26T00:37:22.574Z,19.30
2023-07-26T00:39:49.286Z,19.30
2023-07-26T00:42:18.947Z,19.30
2023-07-26T00:44:45.756Z,19.30
2023-07-26T00:47:12.981Z,19.20
2023-07-26T00:49:39.807Z,19.20
2023-07-26T00:52:07.048Z,19.20
2023-07-26T00:54:33.760Z,19.20
2023-07-26T00:57:01.536Z,19.10
2023-07-26T00:59:28.399Z,19.10
2023-07-26T01:01:55.376Z,19.10
2023-07-26T01:04:22.112Z,19.10
2023-07-26T01:07:03.094Z,19.10
2023-07-26T01:09:50.699Z,19.10
2023-07-26T01:12:21.877Z,19.00
2023-07-26T01:15:07.371Z,19.00
2023-07-26T01:17:34.161Z,19.00
2023-07-26T01:20:03.762Z,19.00
2023-07-26T01:22:30.594Z,18.90
2023-07-26T01:24:58.170Z,18.90
2023-07-26T01:27:30.368Z,18.90
2023-07-26T01:30:02.879Z,18.90
2023-07-26T01:32:35.919Z,18.90
2023-07-26T01:35:03.087Z,18.80
2023-07-26T01:37:38.300Z,18.80
2023-07-26T01:40:09.743Z,18.80
2023-07-26T01:42:42.040Z,18.80
2023-07-26T01:45:10.502Z,18.70
2023-07-26T01:47:37.542Z,18.70
2023-07-26T01:50:06.788Z,18.70
2023-07-26T01:52:34.276Z,18.70
2023-07-26T01:55:01.390Z,18.70
2023-07-26T01:57:31.623Z,18.70
2023-07-26T02:00:03.304Z,18.60
2023-07-26T02:02:30.699Z,18.60
2023-07-26T02:05:07.632Z,18.60
2023-07-26T02:07:34.867Z,18.60
2023-07-26T02:10:07.227Z,18.50
2023-07-26T02:12:34.101Z,18.50
2023-07-26T02:15:00.762Z,18.50
2023-07-26T02:17:27.567Z,18.50
2023-07-26T02:20:03.143Z,18.50
2023-07-26T02:22:29.813Z,18.50
2023-07-26T02:24:58.931Z,18.40
2023-07-26T02:27:25.743Z,18.40
2023-07-26T02:29:54.656Z,18.40
2023-07-26T02:32:26.337Z,18.40
2023-07-26T02:34:53.341Z,18.40
2023-07-26T02:37:20.086Z,18.30
2023-07-26T02:39:51.610Z,18.30
2023-07-26T02:42:18.587Z,18.30
2023-07-26T02:44:54.804Z,18.30
2023-07-26T02:47:21.686Z,18.30
2023-07-26T02:49:48.427Z,18.30
2023-07-26T02:52:19.881Z,18.20
2023-07-26T02:54:49.512Z,18.20
2023-07-26T02:57:16.356Z,18.20
2023-07-26T02:59:43.049Z,18.20
2023-07-26T03:02:09.899Z,18.20
2023-07-26T03:04:39.275Z,18.20
2023-07-26T03:07:05.998Z,18.10
2023-07-26T03:09:34.996Z,18.10
2023-07-26T03:12:04.197Z,18.10
2023-07-26T03:14:30.968Z,18.10
2023-07-26T03:17:05.321Z,18.10
2023-07-26T03:19:45.049Z,18.10
2023-07-26T03:22:21.623Z,18.00
2023-07-26T03:24:53.798Z,18.00
2023-07-26T03:27:24.669Z,18.00
2023-07-26T03:29:51.710Z,18.00
2023-07-26T03:32:18.457Z,18.00
2023-07-26T03:34:47.298Z,18.00
2023-07-26T03:37:16.588Z,17.90
2023-07-26T03:39:43.331Z,17.90
2023-07-26T03:42:10.081Z,17.90
2023-07-26T03:44:36.761Z,17.90
2023-07-26T03:47:03.662Z,17.90
2023-07-26T03:49:30.308Z,17.90
2023-07-26T03:51:56.998Z,17.90
2023-07-26T03:54:23.969Z,17.80
2023-07-26T03:56:50.725Z,17.80
2023-07-26T03:59:17.408Z,17.80
2023-07-26T04:01:47.574Z,17.80
2023-07-26T04:04:14.380Z,17.80
2023-07-26T04:06:43.869Z,17.80
2023-07-26T04:09:10.616Z,17.80
2023-07-26T04:11:37.272Z,17.70
2023-07-26T04:14:08.008Z,17.70
2023-07-26T04:16:35.081Z,17.70
2023-07-26T04:19:02.061Z,17.70
2023-07-26T04:21:33.283Z,17.70
2023-07-26T04:23:59.995Z,17.70
2023-07-26T04:26:29.182Z,17.50
2023-07-26T04:29:00.587Z,17.50
2023-07-26T04:31:27.342Z,17.50
2023-07-26T04:33:54.053Z,17.50
2023-07-26T04:36:20.839Z,17.50
2023-07-26T04:38:47.598Z,17.50
2023-07-26T04:41:14.492Z,17.50
2023-07-26T04:43:43.875Z,17.50
2023-07-26T04:46:13.379Z,17.50
2023-07-26T04:48:40.304Z,17.50
2023-07-26T04:51:09.327Z,17.50
2023-07-26T04:53:36.005Z,17.50
2023-07-26T04:56:02.967Z,17.50
2023-07-26T04:58:29.636Z,17.50
2023-07-26T05:00:56.452Z,17.50
2023-07-26T05:03:23.248Z,17.50
2023-07-26T05:05:53.904Z,17.50
2023-07-26T05:08:23.102Z,17.50
2023-07-26T05:10:52.642Z,17.50
2023-07-26T05:13:20.554Z,17.50
2023-07-26T05:15:50.502Z,17.50
2023-07-26T05:18:22.404Z,17.50
2023-07-26T05:20:53.351Z,17.50
2023-07-26T05:23:22.551Z,17.50
2023-07-26T05:25:51.642Z,17.50
2023-07-26T05:28:18.268Z,17.50
2023-07-26T05:30:49.937Z,17.50
2023-07-26T05:33:16.655Z,17.50
2023-07-26T05:35:43.380Z,17.50
2023-07-26T05:38:10.222Z,17.50
2023-07-26T05:40:37.005Z,17.40
2023-07-26T05:43:03.737Z,17.50
2023-07-26T05:45:32.733Z,17.50
2023-07-26T05:47:59.514Z,17.50
2023-07-26T05:50:26.314Z,17.50
2023-07-26T05:52:55.526Z,17.50
2023-07-26T05:55:27.973Z,17.50
2023-07-26T05:57:56.888Z,17.50
2023-07-26T06:00:23.679Z,17.60
2023-07-26T06:02:52.602Z,17.60
2023-07-26T06:05:22.006Z,17.70
2023-07-26T06:07:50.800Z,17.70
2023-07-26T06:10:20.603Z,17.80
2023-07-26T06:12:52.251Z,17.80
2023-07-26T06:15:19.040Z,17.80
2023-07-26T06:17:47.927Z,17.90
2023-07-26T06:20:17.133Z,18.00
2023-07-26T06:22:43.963Z,18.00
2023-07-26T06:25:13.003Z,18.00
2023-07-26T06:27:40.029Z,18.10
2023-07-26T06:30:13.461Z,18.10
2023-07-26T06:32:40.377Z,18.10
2023-07-26T06:35:07.629Z,18.20
2023-07-26T06:37:38.778Z,18.30
2023-07-26T06:40:06.146Z,18.30
2023-07-26T06:42:38.000Z,18.40
2023-07-26T06:45:05.188Z,18.40
2023-07-26T06:47:31.886Z,18.40
2023-07-26T06:49:58.667Z,18.40
2023-07-26T06:52:30.709Z,18.50
2023-07-26T06:54:59.686Z,18.50
2023-07-26T06:57:26.484Z,18.70
2023-07-26T06:59:53.143Z,18.80
2023-07-26T07:02:19.898Z,18.80
2023-07-26T07:04:46.881Z,18.80
2023-07-26T07:07:13.725Z,18.90
2023-07-26T07:09:40.407Z,19.00
2023-07-26T07:12:10.229Z,19.00
2023-07-26T07:14:37.173Z,19.10
2023-07-26T07:17:04.996Z,19.20
2023-07-26T07:19:31.696Z,19.20
2023-07-26T07:22:03.592Z,19.20
2023-07-26T07:24:30.417Z,19.40
2023-07-26T07:26:57.226Z,19.40
2023-07-26T07:29:24.084Z,19.30
2023-07-26T08:45:20.337Z,21.10
2023-07-26T08:47:47.626Z,21.20
2023-07-26T08:50:14.520Z,21.30
2023-07-26T08:52:42.104Z,21.40
2023-07-26T08:55:13.458Z,21.50
2023-07-26T08:57:42.426Z,21.50
2023-07-26T09:00:12.683Z,21.60
2023-07-26T09:02:45.312Z,21.60
2023-07-26T09:05:12.550Z,22.00
2023-07-26T09:45:31.907Z,22.50
2023-07-26T09:50:52.125Z,22.70
2023-07-26T09:53:24.904Z,23.00
2023-07-26T09:58:28.321Z,23.10
2023-07-26T10:01:00.411Z,23.30
2023-07-26T10:03:29.306Z,23.40
2023-07-26T10:05:57.847Z,23.40
2023-07-26T10:08:27.516Z,23.40
2023-07-26T10:10:57.342Z,23.50
2023-07-26T10:13:28.722Z,23.80
2023-07-26T10:15:59.160Z,23.70
2023-07-26T10:18:29.495Z,23.70
2023-07-26T10:20:59.319Z,24.10
2023-07-26T10:23:26.953Z,24.40
2023-07-26T10:40:39.389Z,25.00
2023-07-26T10:43:21.301Z,25.30
2023-07-26T10:45:49.882Z,25.30
2023-07-26T10:48:36.582Z,24.90
2023-07-26T10:51:22.223Z,25.50
2023-07-26T10:53:49.279Z,25.60
2023-07-26T10:56:37.263Z,25.30
2023-07-26T10:59:04.027Z,25.50
2023-07-26T11:01:39.250Z,25.90
2023-07-26T11:04:14.461Z,26.00
2023-07-26T11:06:56.229Z,26.20
2023-07-26T11:09:28.370Z,26.40
2023-07-26T11:12:05.393Z,26.50
2023-07-26T11:14:34.714Z,25.90
2023-07-26T11:17:17.117Z,26.00
2023-07-26T11:19:48.598Z,26.30
2023-07-26T11:22:15.546Z,26.30
2023-07-26T11:24:44.509Z,26.50
2023-07-26T11:27:14.559Z,26.70
2023-07-26T11:29:41.267Z,26.60
2023-07-26T11:32:08.659Z,26.70
2023-07-26T11:34:35.399Z,26.70
2023-07-26T11:37:17.044Z,26.60
2023-07-26T11:39:43.856Z,26.30
2023-07-26T11:42:10.925Z,26.40
2023-07-26T11:44:37.679Z,26.10
2023-07-26T11:47:04.786Z,26.40
2023-07-26T11:49:34.018Z,26.50
2023-07-26T11:52:00.810Z,26.80
2023-07-26T11:54:27.606Z,27.00
2023-07-26T11:56:54.307Z,27.20
2023-07-26T11:59:21.629Z,27.20
2023-07-26T12:01:49.129Z,27.30
2023-07-26T12:04:17.889Z,26.80
2023-07-26T12:06:49.239Z,26.50
2023-07-26T12:09:17.971Z,26.70
2023-07-26T12:11:55.065Z,27.10
2023-07-26T12:14:24.721Z,27.10
2023-07-26T12:16:53.241Z,27.10
2023-07-26T12:51:55.652Z,26.90
2023-07-26T12:54:25.013Z,26.90
2023-07-26T12:56:53.446Z,27.00
2023-07-26T12:59:20.192Z,27.10
2023-07-26T13:01:46.967Z,27.20
2023-07-26T13:04:18.577Z,27.20
2023-07-26T13:06:47.646Z,27.40
2023-07-26T13:09:16.386Z,27.50
2023-07-26T13:11:44.109Z,27.50
2023-07-26T13:14:13.781Z,27.50
2023-07-26T13:16:40.870Z,27.50
2023-07-26T13:19:07.822Z,27.40
2023-07-26T13:21:36.925Z,27.10
2023-07-26T13:24:03.736Z,27.40
2023-07-26T13:26:30.679Z,27.70
2023-07-26T13:28:57.756Z,28.00
2023-07-26T13:31:24.926Z,28.30
2023-07-26T13:33:52.318Z,28.40
2023-07-26T13:36:23.658Z,28.60
2023-07-26T13:38:50.568Z,28.60
2023-07-26T13:41:17.386Z,28.80
2023-07-26T14:24:38.362Z,27.80
2023-07-26T14:27:05.439Z,27.60
2023-07-26T14:29:35.036Z,27.70
2023-07-26T14:32:01.710Z,27.70
2023-07-26T14:34:30.544Z,27.90
2023-07-26T14:36:57.164Z,27.90
2023-07-26T14:39:26.540Z,28.10
2023-07-26T14:41:53.171Z,28.00
2023-07-26T14:44:19.828Z,28.10
2023-07-26T14:46:47.103Z,28.00
2023-07-26T14:49:16.103Z,27.80
2023-07-26T14:51:42.767Z,27.90
2023-07-26T14:54:11.566Z,27.90
2023-07-26T14:56:38.335Z,28.10
2023-07-26T14:59:05.023Z,28.10
2023-07-26T15:01:31.716Z,28.00
2023-07-26T15:04:03.410Z,28.10
2023-07-26T15:06:32.808Z,28.10
2023-07-26T15:08:59.626Z,28.00
2023-07-26T15:11:31.046Z,28.00
2023-07-26T15:13:57.737Z,28.00
2023-07-26T15:16:24.489Z,28.20
2023-07-26T15:18:53.407Z,28.20
2023-07-26T15:21:21.260Z,28.20
2023-07-26T15:23:53.034Z,28.30
2023-07-26T15:26:22.443Z,28.00
2023-07-26T15:28:51.053Z,28.10
2023-07-26T15:31:20.373Z,28.30
2023-07-26T15:33:47.811Z,28.40
2023-07-26T15:36:14.766Z,28.20
2023-07-26T15:38:41.446Z,28.10
2023-07-26T15:46:31.842Z,28.10
2023-07-26T15:48:56.601Z,28.10
2023-07-26T15:51:25.567Z,28.20
2023-07-26T15:53:56.438Z,28.10
2023-07-26T15:56:24.061Z,28.10
2023-07-26T15:58:52.227Z,28.10
2023-07-26T16:01:24.069Z,28.00
2023-07-26T16:03:53.713Z,28.00
2023-07-26T16:06:28.236Z,28.00
2023-07-26T16:09:27.950Z,27.90
2023-07-26T16:19:53.888Z,27.80
2023-07-26T16:22:08.781Z,27.80
2023-07-26T16:24:35.619Z,27.80
2023-07-26T16:27:02.369Z,27.70
2023-07-26T16:29:29.155Z,27.70
2023-07-26T16:31:55.994Z,27.60
2023-07-26T16:34:22.725Z,27.60
2023-07-26T16:36:49.425Z,27.50
2023-07-26T16:39:20.880Z,27.50
2023-07-26T16:41:47.720Z,27.40
2023-07-26T16:44:14.367Z,27.40
2023-07-26T16:49:13.440Z,27.30
2023-07-26T16:51:40.396Z,27.30
2023-07-26T16:54:07.069Z,27.20
2023-07-26T16:56:34.098Z,27.20
2023-07-26T16:59:04.143Z,27.10
2023-07-26T17:01:31.238Z,27.00
2023-07-26T17:03:58.249Z,27.00
2023-07-26T17:06:25.295Z,27.00
2023-07-26T17:08:55.095Z,27.00
2023-07-26T17:11:24.196Z,26.90
2023-07-26T17:13:50.961Z,26.90
2023-07-26T17:16:17.838Z,26.80
2023-07-26T17:18:50.593Z,26.80
2023-07-26T17:21:17.709Z,26.70
2023-07-26T17:23:44.538Z,26.50
2023-07-26T17:26:11.337Z,26.50
2023-07-26T17:28:37.999Z,26.50
2023-07-26T17:31:06.964Z,26.40
2023-07-26T17:33:35.361Z,26.30
2023-07-26T17:36:12.660Z,26.40
2023-07-26T17:38:42.598Z,26.40
2023-07-26T17:41:09.286Z,26.30
2023-07-26T17:43:38.464Z,26.20
2023-07-26T17:46:05.394Z,26.20
2023-07-26T17:48:32.271Z,26.20
2023-07-26T17:51:00.682Z,26.10
2023-07-26T17:53:28.781Z,26.00
2023-07-26T17:55:55.615Z,26.00
2023-07-26T17:58:24.617Z,26.00
2023-07-26T18:00:53.951Z,25.90
2023-07-26T18:03:20.767Z,25.90
2023-07-26T18:05:50.517Z,25.80
2023-07-26T18:08:18.988Z,25.80
2023-07-26T18:10:45.718Z,25.70
2023-07-26T18:13:17.039Z,25.60
2023-07-26T18:15:45.971Z,25.50
2023-07-26T18:18:12.738Z,25.50
2023-07-26T18:20:39.441Z,25.40
2023-07-26T18:23:06.149Z,25.40
2023-07-26T18:25:33.171Z,25.40
2023-07-26T18:28:02.058Z,25.40
2023-07-26T18:30:31.162Z,25.30
2023-07-26T18:33:00.262Z,25.30
2023-07-26T18:35:26.971Z,25.20
2023-07-26T18:37:55.960Z,25.20
2023-07-26T18:40:23.391Z,25.10
2023-07-26T18:42:52.337Z,25.10
2023-07-26T18:45:19.146Z,25.10
2023-07-26T18:47:45.978Z,25.00
2023-07-26T18:50:15.069Z,25.00
2023-07-26T18:52:41.705Z,25.00
2023-07-26T18:55:08.873Z,24.90
2023-07-26T18:57:35.501Z,24.90
2023-07-26T19:00:02.323Z,24.90
2023-07-26T19:02:29.011Z,24.80
2023-07-26T19:05:00.513Z,24.80
2023-07-26T19:07:30.075Z,24.70
2023-07-26T19:09:59.617Z,24.70
2023-07-26T19:12:28.673Z,24.60
2023-07-26T19:14:55.492Z,24.60
2023-07-26T19:17:22.127Z,24.60
2023-07-26T19:19:50.558Z,24.50
2023-07-26T19:22:17.262Z,24.50
2023-07-26T19:24:46.272Z,24.40
2023-07-26T19:27:17.550Z,24.40
2023-07-26T19:29:44.725Z,24.30
2023-07-26T19:32:11.431Z,24.30
2023-07-26T19:34:40.328Z,24.30
2023-07-26T19:37:07.241Z,24.20
2023-07-26T19:39:33.956Z,24.20
2023-07-26T19:42:00.636Z,24.10
2023-07-26T19:44:27.300Z,24.10
2023-07-26T19:46:56.418Z,24.00
2023-07-26T19:49:23.055Z,24.00
2023-07-26T19:51:49.769Z,23.90
2023-07-26T19:54:17.407Z,23.90
2023-07-26T19:56:46.682Z,23.80
2023-07-26T19:59:18.035Z,23.80
2023-07-26T20:01:46.771Z,23.70
2023-07-26T20:04:16.854Z,23.70
2023-07-26T20:06:52.254Z,23.60
2023-07-26T20:09:19.863Z,23.60
2023-07-26T20:11:46.493Z,23.60
2023-07-26T20:14:14.451Z,23.50
2023-07-26T20:16:44.207Z,23.50
2023-07-26T20:19:13.434Z,23.40
2023-07-26T20:21:40.292Z,23.40
2023-07-26T20:24:11.670Z,23.40
2023-07-26T20:26:38.398Z,23.30
2023-07-26T20:29:05.268Z,23.30
2023-07-26T20:31:34.193Z,23.20
2023-07-26T20:34:03.374Z,23.20
2023-07-26T20:36:30.177Z,23.20
2023-07-26T20:38:56.858Z,23.10
2023-07-26T20:41:23.716Z,23.10
2023-07-26T20:43:53.049Z,23.10
2023-07-26T20:46:27.996Z,23.00
2023-07-26T20:48:54.753Z,23.00
2023-07-26T20:51:21.600Z,22.90
2023-07-26T20:53:50.539Z,22.90
2023-07-26T20:56:17.973Z,22.90
2023-07-26T20:58:44.774Z,22.80
2023-07-26T21:01:11.609Z,22.80
2023-07-26T21:03:38.470Z,22.80
2023-07-26T21:06:05.156Z,22.70
2023-07-26T21:08:32.121Z,22.70
2023-07-26T21:10:58.922Z,22.70
2023-07-26T21:13:25.732Z,22.60
2023-07-26T21:15:52.409Z,22.60
2023-07-26T21:18:24.806Z,22.60
2023-07-26T21:20:57.330Z,22.50
2023-07-26T21:23:24.222Z,22.50
2023-07-26T21:25:51.745Z,22.50
2023-07-26T21:28:21.206Z,22.40
2023-07-26T21:30:49.464Z,22.40
2023-07-26T21:33:19.024Z,22.40
2023-07-26T21:35:48.155Z,22.30
2023-07-26T21:38:15.013Z,22.30
2023-07-26T21:40:41.837Z,22.30
2023-07-26T21:43:08.596Z,22.20
2023-07-26T21:45:35.349Z,22.20
2023-07-26T21:48:04.840Z,22.20
2023-07-26T21:50:34.229Z,22.20
2023-07-26T21:53:01.336Z,22.10
2023-07-26T21:55:30.575Z,22.10
2023-07-26T21:57:57.422Z,22.10
2023-07-26T22:00:29.087Z,22.00
2023-07-26T22:02:55.892Z,22.00
2023-07-26T22:05:23.890Z,22.00
2023-07-26T22:07:50.688Z,22.00
2023-07-26T22:10:17.366Z,21.90
2023-07-26T22:12:44.006Z,21.90
2023-07-26T22:15:10.942Z,21.80
2023-07-26T22:17:38.617Z,21.80
2023-07-26T22:20:06.067Z,21.80
2023-07-26T22:22:32.902Z,21.80
2023-07-26T22:25:02.187Z,21.70
2023-07-26T22:27:31.379Z,21.70
2023-07-26T22:30:00.659Z,21.70
2023-07-26T22:32:27.492Z,21.70
2023-07-26T22:34:54.272Z,21.70
2023-07-26T22:37:20.969Z,21.60
2023-07-26T22:39:47.633Z,21.60
2023-07-26T22:42:14.709Z,21.60
2023-07-26T22:44:41.720Z,21.60
2023-07-26T22:47:10.980Z,21.50
2023-07-26T22:49:37.665Z,21.50
2023-07-26T22:52:04.708Z,21.50
2023-07-26T22:54:31.411Z,21.40
2023-07-26T22:57:00.535Z,21.40
2023-07-26T22:59:29.710Z,21.40
2023-07-26T23:01:56.458Z,21.40
2023-07-26T23:04:23.178Z,21.30
2023-07-26T23:06:52.380Z,21.30
2023-07-26T23:09:21.378Z,21.30
2023-07-26T23:11:50.649Z,21.30
2023-07-26T23:14:18.751Z,21.20
2023-07-26T23:16:45.713Z,21.20
2023-07-26T23:19:12.516Z,21.20
2023-07-26T23:21:41.919Z,21.20
2023-07-26T23:24:08.816Z,21.20
2023-07-26T23:26:36.044Z,21.10
2023-07-26T23:29:05.209Z,21.10
2023-07-26T23:31:32.002Z,21.10
2023-07-26T23:33:58.844Z,21.10
2023-07-26T23:36:27.784Z,21.10
2023-07-26T23:38:54.543Z,21.00
2023-07-26T23:41:24.285Z,21.00
2023-07-26T23:43:51.318Z,21.00
2023-07-26T23:46:18.080Z,21.00
2023-07-26T23:48:47.244Z,20.90
2023-07-26T23:51:14.248Z,20.90
2023-07-26T23:53:43.599Z,20.90
2023-07-26T23:56:13.159Z,20.90
2023-07-26T23:58:39.839Z,20.90
